Time;durP1;ratioP1;P1;durP2;ratioP2;P2;SDS_P1;SDS_P2;PMS_P1;PMS_P2;Temp;Humidity;BMP_temperature;BMP_pressure;BME280_temperature;BME280_humidity;BME280_pressure;Samples;Min_cycle;Max_cycle;Signal;HPM_P1;HPM_P2
2023/03/29 04:17:17;;;;;;;7.37;4.57;;;;;;;-2.76;97.05;101132.34;5557312;32;281283;-87
2023/03/29 04:20:23;;;;;;;7.35;4.47;;;;;;;-2.80;96.63;101127.94;5545349;32;34041;-88
2023/03/29 04:23:25;;;;;;;10.93;4.75;;;;;;;-2.83;96.39;101133.97;5545927;32;34320;-87
2023/03/29 04:26:29;;;;;;;7.65;5.07;;;;;;;-2.75;95.80;101137.59;5546139;32;33965;-87
2023/03/29 04:29:32;;;;;;;8.00;4.40;;;;;;;-2.75;96.56;101134.09;5546406;32;33673;-89
2023/03/29 04:32:36;;;;;;;6.22;4.50;;;;;;;-2.68;96.25;101142.88;5548452;32;33722;-88
2023/03/29 04:35:39;;;;;;;9.20;5.32;;;;;;;-2.65;96.12;101141.22;5545565;32;34139;-88
2023/03/29 04:38:46;;;;;;;7.35;4.37;;;;;;;-2.52;95.38;101142.28;5546888;32;33867;-88
2023/03/29 04:41:49;;;;;;;7.80;4.65;;;;;;;-2.48;96.08;101138.00;5546259;32;33828;-88
2023/03/29 04:44:53;;;;;;;8.02;3.62;;;;;;;-2.48;97.02;101138.91;5546705;32;34009;-88
2023/03/29 04:47:58;;;;;;;7.10;4.72;;;;;;;-2.41;98.85;101136.41;5547242;32;34384;-88
2023/03/29 04:51:01;;;;;;;7.47;4.20;;;;;;;-2.32;95.98;101136.53;5545697;32;34598;-88
2023/03/29 04:54:04;;;;;;;8.50;4.28;;;;;;;-2.22;92.26;101134.97;5544534;32;33983;-88
2023/03/29 04:57:08;;;;;;;7.30;4.03;;;;;;;-2.10;94.47;101131.66;5546295;32;34103;-88
2023/03/29 05:00:15;;;;;;;5.32;3.85;;;;;;;-1.96;90.58;101131.87;5545633;32;35068;-84
2023/03/29 05:03:20;;;;;;;6.55;4.50;;;;;;;-1.74;90.26;101142.56;5555363;32;35084;-88
2023/03/29 05:06:24;;;;;;;5.80;4.35;;;;;;;-1.52;88.29;101147.19;5549762;32;33401;-90
2023/03/29 05:09:27;;;;;;;8.07;4.20;;;;;;;-1.30;87.43;101155.28;5564247;32;34003;-89
2023/03/29 05:12:30;;;;;;;7.03;4.05;;;;;;;-1.12;86.66;101153.72;5554500;32;34579;-86
2023/03/29 05:15:33;;;;;;;6.45;4.25;;;;;;;-0.98;85.55;101146.06;5543385;32;34014;-88
2023/03/29 05:18:36;;;;;;;7.40;4.28;;;;;;;-0.60;81.68;101147.31;5538236;32;34063;-87
2023/03/29 05:21:39;;;;;;;8.85;4.60;;;;;;;-0.64;81.63;101143.81;5546392;32;33716;-88
2023/03/29 05:24:43;;;;;;;5.78;4.00;;;;;;;-0.57;80.23;101143.00;5545945;32;35201;-88
2023/03/29 05:27:46;;;;;;;5.50;3.42;;;;;;;-0.39;79.51;101149.22;5537196;32;33465;-85
2023/03/29 05:31:00;;;;;;;6.03;3.42;;;;;;;-0.08;74.85;101140.75;5542807;32;33711;-85
2023/03/29 05:34:04;;;;;;;5.65;3.70;;;;;;;0.18;68.71;101146.13;5524400;32;33834;-85
2023/03/29 05:37:09;;;;;;;6.87;3.62;;;;;;;0.34;70.35;101138.37;5535084;32;33344;-85
2023/03/29 05:40:13;;;;;;;4.97;3.12;;;;;;;0.38;67.90;101141.03;5526778;32;34342;-86
2023/03/29 05:43:17;;;;;;;3.40;2.92;;;;;;;0.40;66.01;101139.28;5519491;32;34768;-86
2023/03/29 05:46:20;;;;;;;6.78;3.70;;;;;;;0.60;66.06;101145.47;5537608;32;34232;-85
2023/03/29 05:49:23;;;;;;;4.45;3.20;;;;;;;0.56;64.96;101149.81;5533324;32;34822;-85
2023/03/29 05:52:27;;;;;;;5.18;3.45;;;;;;;0.87;65.16;101152.53;5541978;32;34002;-85
2023/03/29 05:55:30;;;;;;;4.35;3.45;;;;;;;0.78;64.58;101155.09;5531368;32;35290;-85
2023/03/29 05:58:33;;;;;;;5.30;3.40;;;;;;;0.85;65.70;101161.22;5530822;32;34441;-86
2023/03/29 06:01:36;;;;;;;5.80;4.45;;;;;;;0.99;64.69;101156.91;5533371;32;35132;-86
2023/03/29 06:04:39;;;;;;;8.90;4.20;;;;;;;1.34;64.95;101160.47;5550377;32;34244;-86
2023/03/29 06:07:49;;;;;;;7.00;3.62;;;;;;;1.38;64.16;101158.72;5553258;32;33592;-87
2023/03/29 06:11:01;;;;;;;6.62;3.87;;;;;;;1.39;63.65;101163.06;5543035;32;34282;-87
2023/03/29 06:14:07;;;;;;;5.40;3.90;;;;;;;1.46;63.14;101167.47;5522006;32;32839;-88
2023/03/29 06:17:14;;;;;;;7.28;4.40;;;;;;;1.44;62.05;101166.56;5541375;32;34040;-87
2023/03/29 06:20:17;;;;;;;8.50;4.90;;;;;;;1.67;62.46;101165.72;5543191;32;34080;-87
2023/03/29 06:23:22;;;;;;;8.30;3.92;;;;;;;1.78;62.15;101165.69;5541116;32;33324;-84
2023/03/29 06:26:29;;;;;;;8.63;4.50;;;;;;;2.14;60.78;101171.78;5544009;32;33302;-85
2023/03/29 06:29:32;;;;;;;7.57;4.32;;;;;;;2.09;58.67;101165.66;5534301;32;34461;-85
2023/03/29 06:32:35;;;;;;;8.10;4.20;;;;;;;1.88;59.92;101167.44;5527209;32;34146;-84
2023/03/29 06:35:41;;;;;;;6.47;4.40;;;;;;;2.31;58.84;101176.97;5544987;32;33740;-85
2023/03/29 06:38:46;;;;;;;7.93;4.40;;;;;;;2.10;58.32;101181.38;5543133;32;32753;-84
2023/03/29 06:41:50;;;;;;;8.68;4.20;;;;;;;2.50;58.45;101182.16;5547692;32;34107;-85
2023/03/29 06:44:54;;;;;;;39.80;6.68;;;;;;;2.87;57.03;101183.75;5545324;32;32092;-86
2023/03/29 06:47:58;;;;;;;10.55;4.25;;;;;;;3.06;56.01;101185.41;5548183;32;35137;-87
2023/03/29 06:51:00;;;;;;;5.22;4.05;;;;;;;3.48;53.62;101189.53;5536227;32;35248;-89
2023/03/29 06:54:04;;;;;;;7.93;5.40;;;;;;;3.50;53.06;101186.03;5540709;32;33847;-88
2023/03/29 06:57:09;;;;;;;7.32;5.07;;;;;;;3.58;54.38;101188.56;5537118;32;33073;-84
2023/03/29 07:00:26;;;;;;;8.07;5.45;;;;;;;3.57;54.18;101188.59;5523403;32;33897;-84
2023/03/29 07:03:33;;;;;;;8.35;5.53;;;;;;;3.53;54.67;101186.88;5529817;32;34212;-85
2023/03/29 07:06:38;;;;;;;8.38;4.95;;;;;;;4.15;53.25;101184.59;5541422;32;33705;-85
2023/03/29 07:09:41;;;;;;;8.40;5.32;;;;;;;4.76;51.98;101188.28;5526901;32;34385;-85
2023/03/29 07:12:45;;;;;;;7.95;5.00;;;;;;;4.11;52.39;101190.75;5527641;32;34401;-87
2023/03/29 07:15:48;;;;;;;10.07;4.65;;;;;;;4.82;50.75;101198.72;5535059;32;34489;-87
2023/03/29 07:18:51;;;;;;;6.53;4.43;;;;;;;3.91;50.36;101199.69;5535724;32;34109;-86
2023/03/29 07:21:55;;;;;;;8.10;4.60;;;;;;;3.79;51.49;101207.66;5530734;32;34886;-87
2023/03/29 07:25:04;;;;;;;9.60;4.35;;;;;;;4.16;50.89;101215.22;5539627;32;35188;-84
2023/03/29 07:28:07;;;;;;;7.50;4.03;;;;;;;4.05;50.25;101211.81;5536220;32;34282;-85
2023/03/29 07:31:12;;;;;;;6.35;4.12;;;;;;;4.07;50.48;101209.19;5551223;31;35170;-86
2023/03/29 07:34:16;;;;;;;5.28;3.72;;;;;;;4.73;47.95;101212.87;5553413;32;35240;-85
2023/03/29 07:37:20;;;;;;;6.00;3.85;;;;;;;5.17;48.26;101213.19;5538797;32;34023;-85
2023/03/29 07:40:24;;;;;;;4.78;3.20;;;;;;;5.33;46.14;101218.25;5554645;32;34878;-85
2023/03/29 07:43:30;;;;;;;3.25;2.90;;;;;;;5.74;43.86;101213.25;5561401;32;32283;-84
2023/03/29 07:46:32;;;;;;;3.83;3.10;;;;;;;6.38;40.79;101220.94;5539443;32;33968;-84
2023/03/29 07:49:35;;;;;;;4.25;2.90;;;;;;;5.96;42.68;101224.28;5548217;32;33911;-85
2023/03/29 07:52:38;;;;;;;4.55;3.22;;;;;;;5.98;41.67;101222.47;5549060;32;34116;-85
2023/03/29 07:55:45;;;;;;;6.10;3.28;;;;;;;6.03;41.99;101225.09;5543371;32;33893;-85
2023/03/29 07:58:50;;;;;;;4.30;2.95;;;;;;;6.10;41.90;101218.81;5557735;32;33676;-85
2023/03/29 08:01:54;;;;;;;4.70;3.22;;;;;;;7.22;40.98;101218.38;5561752;32;34176;-85
2023/03/29 08:04:57;;;;;;;4.15;2.85;;;;;;;8.56;39.15;101220.41;5562690;32;34263;-85
2023/03/29 08:08:03;;;;;;;3.17;2.50;;;;;;;7.10;38.68;101222.16;5568680;32;34050;-84
2023/03/29 08:11:09;;;;;;;3.17;2.42;;;;;;;7.24;38.14;101219.22;5573629;31;35257;-84
2023/03/29 08:14:12;;;;;;;4.25;2.35;;;;;;;7.54;39.53;101214.13;5553913;32;34339;-85
2023/03/29 08:17:17;;;;;;;6.45;2.67;;;;;;;7.58;37.12;101218.44;5548569;32;32955;-85
2023/03/29 08:20:20;;;;;;;7.32;2.70;;;;;;;6.40;38.91;101213.91;5561702;32;34197;-85
2023/03/29 08:23:30;;;;;;;3.33;2.40;;;;;;;6.81;37.65;101215.72;5561644;32;33499;-85
2023/03/29 08:26:34;;;;;;;4.85;2.30;;;;;;;8.12;34.36;101210.09;5547651;32;33893;-89
2023/03/29 08:29:37;;;;;;;4.07;2.20;;;;;;;8.48;33.44;101207.38;5553351;32;33935;-90
2023/03/29 08:32:40;;;;;;;3.15;1.98;;;;;;;8.99;32.70;101208.59;5553129;32;33830;-90
2023/03/29 08:35:43;;;;;;;4.32;2.50;;;;;;;8.91;31.48;101207.97;5555411;32;33903;-89
2023/03/29 08:38:49;;;;;;;3.12;2.47;;;;;;;8.59;31.84;101209.75;5550350;32;33762;-86
2023/03/29 08:42:05;;;;;;;4.60;2.35;;;;;;;9.12;31.82;101208.22;5534721;32;33847;-85
2023/03/29 08:45:42;;;;;;;3.50;2.55;;;;;;;10.80;32.47;101204.47;5545031;32;35885;-86
2023/03/29 08:48:55;;;;;;;4.53;2.80;;;;;;;11.88;29.78;101204.62;5551977;32;34641;-85
2023/03/29 08:52:01;;;;;;;7.72;3.20;;;;;;;12.46;27.80;101203.06;5560960;32;34226;-86
2023/03/29 08:55:12;;;;;;;3.08;2.25;;;;;;;13.11;29.71;101190.38;5551358;32;33799;-86
2023/03/29 08:58:25;;;;;;;4.50;2.90;;;;;;;12.22;28.16;101202.38;5553342;32;34014;-85
2023/03/29 09:01:34;;;;;;;3.58;2.75;;;;;;;12.21;31.56;101193.50;5551624;32;33858;-84
2023/03/29 09:04:39;;;;;;;4.00;3.33;;;;;;;12.40;28.38;101190.03;5547885;32;33784;-85
2023/03/29 09:07:42;;;;;;;3.12;2.83;;;;;;;12.30;28.61;101191.38;5548890;32;34340;-86
2023/03/29 09:11:00;;;;;;;4.00;3.10;;;;;;;10.86;30.02;101185.66;5548598;32;34761;-83
2023/03/29 09:14:22;;;;;;;4.70;3.20;;;;;;;11.92;31.28;101184.09;5553928;32;34998;-87
2023/03/29 09:17:47;;;;;;;6.60;3.30;;;;;;;12.12;28.10;101176.16;5554739;32;34258;-88
2023/03/29 09:21:00;;;;;;;3.87;3.05;;;;;;;11.49;30.13;101166.34;5555779;32;34094;-83
2023/03/29 09:24:27;;;;;;;7.82;2.72;;;;;;;12.37;28.44;101163.59;5555865;32;34301;-85
2023/03/29 09:27:41;;;;;;;3.80;2.50;;;;;;;12.72;28.78;101163.75;5555249;32;33996;-84
2023/03/29 09:31:02;;;;;;;2.67;2.30;;;;;;;12.45;28.17;101172.06;5557226;32;34479;-85
2023/03/29 09:34:17;;;;;;;5.03;2.72;;;;;;;12.67;28.42;101165.75;5555753;32;34699;-85
2023/03/29 09:37:37;;;;;;;4.03;2.50;;;;;;;12.47;28.54;101158.72;5558798;32;33422;-84
2023/03/29 09:40:45;;;;;;;4.03;2.50;;;;;;;12.51;28.73;101153.16;5572718;32;34057;-84
2023/03/29 09:43:50;;;;;;;3.20;2.30;;;;;;;12.13;29.85;101153.09;5576402;32;34281;-85
2023/03/29 09:47:00;;;;;;;3.70;2.25;;;;;;;13.08;29.04;101146.97;5574823;32;34352;-85
2023/03/29 09:50:15;;;;;;;4.60;2.40;;;;;;;13.80;27.88;101145.31;5573846;32;34101;-84
2023/03/29 09:53:32;;;;;;;5.25;2.40;;;;;;;13.39;29.66;101136.66;5578571;32;33809;-85
2023/03/29 09:56:38;;;;;;;4.78;2.50;;;;;;;14.01;31.23;101141.56;5572731;32;35196;-85
2023/03/29 09:59:44;;;;;;;6.62;2.60;;;;;;;14.67;25.35;101138.09;5571325;32;34556;-85
2023/03/29 10:02:52;;;;;;;7.07;2.70;;;;;;;14.61;27.87;101133.97;5559839;32;34793;-85
2023/03/29 10:05:59;;;;;;;4.25;3.00;;;;;;;14.92;26.52;101128.75;5544684;32;34588;-85
2023/03/29 10:09:03;;;;;;;5.22;2.67;;;;;;;14.82;26.27;101125.75;5558318;32;33025;-86
2023/03/29 10:12:07;;;;;;;3.53;2.70;;;;;;;14.92;24.92;101124.28;5548532;32;33780;-87
2023/03/29 10:15:13;;;;;;;3.33;2.50;;;;;;;13.74;27.03;101110.03;5563088;31;34048;-86
2023/03/29 10:18:32;;;;;;;5.45;2.83;;;;;;;13.72;27.56;101108.37;5570977;32;33557;-85
2023/03/29 10:21:36;;;;;;;4.47;2.50;;;;;;;13.71;27.08;101104.00;5580357;32;34146;-85
2023/03/29 10:24:39;;;;;;;4.75;2.80;;;;;;;13.38;27.73;101094.94;5567589;32;34214;-85
2023/03/29 10:27:43;;;;;;;3.33;2.42;;;;;;;14.91;25.27;101094.97;5565781;32;34092;-84
2023/03/29 10:30:54;;;;;;;4.93;2.60;;;;;;;16.35;23.94;101098.16;5555605;32;34468;-84
2023/03/29 10:34:01;;;;;;;5.10;2.97;;;;;;;17.14;24.48;101086.94;5563376;32;35024;-84
2023/03/29 10:37:05;;;;;;;4.40;2.72;;;;;;;16.08;25.06;101085.56;5572015;32;34203;-85
2023/03/29 10:40:17;;;;;;;2.65;2.40;;;;;;;14.81;25.18;101081.28;5565199;32;33932;-84
2023/03/29 10:43:20;;;;;;;5.60;2.60;;;;;;;14.98;26.42;101072.31;5557247;32;34138;-84
2023/03/29 10:46:40;;;;;;;5.43;2.80;;;;;;;14.48;26.03;101075.03;5565174;32;33752;-84
2023/03/29 10:49:49;;;;;;;4.37;2.72;;;;;;;13.58;28.61;101071.78;5550044;32;33648;-85
2023/03/29 10:52:52;;;;;;;5.00;2.67;;;;;;;14.32;29.83;101072.34;5554439;32;34565;-85
2023/03/29 10:56:16;;;;;;;6.40;3.08;;;;;;;15.67;30.14;101066.53;5564985;32;34743;-86
2023/03/29 10:59:30;;;;;;;3.85;2.62;;;;;;;17.19;23.02;101074.06;5559755;32;35310;-87
2023/03/29 11:03:13;;;;;;;3.00;2.53;;;;;;;17.85;22.85;101065.19;5545140;32;33944;-87
2023/03/29 11:07:00;;;;;;;5.57;2.90;;;;;;;20.64;21.08;101064.16;5560278;32;34571;-87
2023/03/29 11:10:23;;;;;;;3.15;2.50;;;;;;;20.74;20.74;101062.44;5509092;32;34722;-86
2023/03/29 11:13:50;;;;;;;6.25;3.30;;;;;;;17.99;22.20;101059.69;5544045;32;34115;-87
2023/03/29 11:17:06;;;;;;;7.05;3.75;;;;;;;15.59;25.79;101050.94;5545012;32;33886;-87
2023/03/29 11:20:20;;;;;;;4.57;3.30;;;;;;;13.16;28.43;101048.06;5532294;32;35363;-88
2023/03/29 11:23:41;;;;;;;8.65;3.53;;;;;;;12.14;30.22;101045.78;5547424;32;34853;-89
2023/03/29 11:27:18;;;;;;;5.68;4.03;;;;;;;12.30;31.52;101043.28;5553388;32;34204;-87
2023/03/29 11:30:24;;;;;;;5.55;3.30;;;;;;;13.43;30.51;101044.09;5540611;32;34776;-88
2023/03/29 11:33:42;;;;;;;4.70;3.62;;;;;;;15.19;26.53;101042.66;5544635;32;32518;-87
2023/03/29 11:37:20;;;;;;;3.97;3.58;;;;;;;14.22;28.79;101047.09;5538233;32;34205;-87
2023/03/29 11:40:38;;;;;;;8.23;3.40;;;;;;;12.18;32.66;101035.84;5536214;32;34095;-87
2023/03/29 11:43:45;;;;;;;4.57;3.28;;;;;;;11.95;32.91;101022.66;5535824;32;34126;-86
2023/03/29 11:47:25;;;;;;;7.07;3.65;;;;;;;12.27;31.04;101023.00;5534227;32;33693;-86
2023/03/29 11:50:52;;;;;;;5.22;3.20;;;;;;;13.13;28.91;101016.22;5546635;32;34684;-87
2023/03/29 11:54:14;;;;;;;3.58;2.67;;;;;;;13.24;30.96;101007.72;5562384;26;34612;-89
2023/03/29 11:57:23;;;;;;;4.82;2.83;;;;;;;13.50;29.40;101010.00;5578357;26;33541;-88
2023/03/29 12:00:31;;;;;;;3.62;2.70;;;;;;;12.53;31.18;101002.25;5568807;31;33955;-89
2023/03/29 12:07:21;;;;;;;3.35;3.05;;;;;;;10.41;32.46;101004.25;5364169;30;20092;-87
2023/03/29 12:14:22;;;;;;;3.28;2.70;;;;;;;10.73;33.21;101004.78;5552727;32;20092;-87
2023/03/29 12:17:36;;;;;;;4.62;3.17;;;;;;;10.79;33.34;100991.25;5555486;32;34069;-86
2023/03/29 12:20:39;;;;;;;4.75;2.90;;;;;;;10.55;33.93;100985.19;5532201;32;33863;-86
2023/03/29 12:23:44;;;;;;;3.53;2.72;;;;;;;11.07;33.62;100983.94;5562426;32;34118;-86
2023/03/29 12:27:09;;;;;;;4.80;3.00;;;;;;;11.02;33.38;100985.00;5552241;32;34047;-86
2023/03/29 12:30:22;;;;;;;5.40;3.15;;;;;;;10.76;33.61;100986.09;5536555;32;34405;-85
2023/03/29 12:33:49;;;;;;;3.75;2.78;;;;;;;10.47;34.50;100974.88;5537187;32;32692;-87
2023/03/29 12:37:09;;;;;;;5.10;2.95;;;;;;;10.51;34.49;100969.37;5540892;32;33660;-86
2023/03/29 12:40:16;;;;;;;3.50;3.20;;;;;;;11.12;33.27;100971.34;5537824;32;33233;-86
2023/03/29 12:43:45;;;;;;;3.72;2.90;;;;;;;10.73;33.53;100965.84;5543486;32;33742;-85
2023/03/29 12:46:56;;;;;;;3.50;2.83;;;;;;;10.96;33.72;100964.00;5535554;32;34343;-89
2023/03/29 12:50:00;;;;;;;3.55;3.20;;;;;;;10.75;34.04;100961.34;5548901;32;34326;-86
2023/03/29 12:53:13;;;;;;;5.40;3.17;;;;;;;10.71;34.63;100962.37;5555101;32;33960;-86
2023/03/29 12:56:20;;;;;;;4.90;3.10;;;;;;;10.49;34.85;100952.66;5564189;32;34036;-86
2023/03/29 12:59:23;;;;;;;3.85;2.80;;;;;;;9.97;36.46;100950.22;5561592;32;34191;-86
2023/03/29 13:02:34;;;;;;;4.65;3.20;;;;;;;10.15;35.84;100946.00;5557182;32;34887;-87
2023/03/29 13:05:38;;;;;;;4.62;3.33;;;;;;;10.23;37.18;100957.19;5545793;32;33743;-87
2023/03/29 13:08:43;;;;;;;4.25;3.00;;;;;;;10.46;35.87;100959.88;5543248;32;34629;-86
2023/03/29 13:11:54;;;;;;;3.80;3.08;;;;;;;9.94;36.99;100959.16;5535830;32;34247;-87
2023/03/29 13:14:59;;;;;;;4.07;3.22;;;;;;;9.83;37.09;100948.09;5532037;32;33836;-86
2023/03/29 13:18:26;;;;;;;4.47;3.20;;;;;;;10.31;37.64;100945.41;5533729;32;33864;-85
2023/03/29 13:22:08;;;;;;;4.40;3.42;;;;;;;10.48;36.13;100936.78;5536095;32;34902;-85
2023/03/29 13:25:31;;;;;;;4.93;3.03;;;;;;;10.14;36.41;100936.31;5449528;32;34580;-86
2023/03/29 13:29:14;;;;;;;6.12;3.60;;;;;;;10.69;36.67;100931.53;5449612;32;34049;-90
2023/03/29 13:32:51;;;;;;;6.43;3.20;;;;;;;10.73;34.78;100920.75;5452484;32;34152;-86
2023/03/29 13:36:07;;;;;;;4.22;3.20;;;;;;;11.12;34.44;100916.44;5452568;32;33666;-87
2023/03/29 13:39:28;;;;;;;3.95;3.15;;;;;;;10.88;34.74;100923.66;5442932;32;35358;-86
2023/03/29 13:42:54;;;;;;;4.25;2.87;;;;;;;10.10;34.96;100911.72;5454549;32;35208;-86
2023/03/29 13:45:56;;;;;;;8.02;3.40;;;;;;;10.55;35.07;100909.09;5459616;32;35225;-86
2023/03/29 13:49:11;;;;;;;3.78;3.25;;;;;;;10.77;35.23;100911.72;5455482;32;35112;-86
2023/03/29 13:52:20;;;;;;;3.60;3.25;;;;;;;11.20;34.81;100908.13;5443196;32;33823;-86
2023/03/29 13:59:04;;;;;;;4.37;3.30;;;;;;;11.58;35.33;100894.09;5546355;32;34446;-88
2023/03/29 14:02:48;;;;;;;4.40;3.30;;;;;;;11.72;34.77;100891.66;5544656;32;34362;-87
2023/03/29 14:06:01;;;;;;;5.37;3.22;;;;;;;11.76;33.53;100894.19;5517551;32;33193;-86
2023/03/29 14:09:07;;;;;;;4.22;3.10;;;;;;;11.56;34.21;100890.63;5733703;26;34567;-87
2023/03/29 14:12:18;;;;;;;4.87;3.65;;;;;;;11.38;34.29;100887.87;5546626;32;34720;-87
2023/03/29 14:15:28;;;;;;;5.20;3.15;;;;;;;11.30;35.96;100887.34;5544170;32;35243;-86
2023/03/29 14:18:36;;;;;;;5.62;3.33;;;;;;;11.42;35.60;100894.75;5542388;32;34251;-85
2023/03/29 14:21:41;;;;;;;4.50;3.12;;;;;;;11.66;34.66;100883.12;5544015;32;34519;-84
2023/03/29 14:24:52;;;;;;;5.78;3.60;;;;;;;11.52;35.94;100879.28;5542233;32;34350;-86
2023/03/29 14:27:55;;;;;;;5.30;3.15;;;;;;;11.40;35.45;100879.81;5543935;32;34981;-84
2023/03/29 14:30:58;;;;;;;4.82;3.10;;;;;;;11.19;35.05;100886.06;5543552;32;35114;-84
2023/03/29 14:34:10;;;;;;;4.00;3.25;;;;;;;10.98;36.20;100879.00;5539906;32;34897;-84
2023/03/29 14:37:25;;;;;;;4.82;3.35;;;;;;;10.70;36.66;100878.41;5544386;32;33688;-87
2023/03/29 14:40:29;;;;;;;7.60;3.17;;;;;;;10.70;36.73;100874.91;5540585;32;34278;-85
2023/03/29 14:43:33;;;;;;;4.57;3.72;;;;;;;10.52;37.76;100874.75;5543926;32;35026;-84
2023/03/29 14:46:36;;;;;;;7.47;3.35;;;;;;;10.70;37.34;100874.91;5545633;32;34314;-83
2023/03/29 14:49:40;;;;;;;5.72;3.78;;;;;;;10.58;39.23;100869.19;5543858;32;34222;-85
2023/03/29 14:52:43;;;;;;;5.07;3.72;;;;;;;10.34;39.50;100866.59;5544598;32;34976;-84
2023/03/29 14:55:51;;;;;;;7.87;4.07;;;;;;;10.29;38.74;100857.94;5543483;32;36196;-84
2023/03/29 14:58:56;;;;;;;4.28;3.60;;;;;;;10.15;39.49;100865.59;5538356;32;34101;-84
2023/03/29 15:01:59;;;;;;;6.40;4.10;;;;;;;10.18;40.17;100865.47;5544360;32;34012;-84
2023/03/29 15:05:21;;;;;;;6.53;3.60;;;;;;;10.30;39.25;100869.44;5541025;32;35300;-85
2023/03/29 15:08:31;;;;;;;4.43;4.03;;;;;;;10.22;39.85;100865.28;5542953;32;34336;-84
2023/03/29 15:11:36;;;;;;;7.18;4.47;;;;;;;10.02;40.38;100866.09;5545099;32;34217;-85
2023/03/29 15:14:39;;;;;;;8.82;4.20;;;;;;;9.89;41.07;100863.06;5539946;32;33942;-84
2023/03/29 15:17:47;;;;;;;8.20;4.75;;;;;;;9.80;41.70;100868.69;5541279;32;35237;-84
2023/03/29 15:20:54;;;;;;;5.53;4.37;;;;;;;9.68;42.61;100857.69;5540836;32;33967;-84
2023/03/29 15:24:00;;;;;;;7.30;4.60;;;;;;;9.67;42.67;100852.44;5536759;32;34266;-84
2023/03/29 15:27:13;;;;;;;6.70;4.55;;;;;;;9.62;42.67;100855.25;5541575;32;34318;-84
